createdAt,value
2023-11-04T00:03:17.749Z,8.20
2023-11-04T00:07:19.647Z,8.10
2023-11-04T00:11:21.855Z,8.10
2023-11-04T00:15:25.113Z,8.10
2023-11-04T00:19:27.358Z,8.00
2023-11-04T00:23:29.208Z,8.00
2023-11-04T00:27:31.280Z,8.00
2023-11-04T00:31:35.528Z,8.00
2023-11-04T00:35:37.372Z,7.90
2023-11-04T00:39:39.595Z,8.00
2023-11-04T00:43:41.439Z,8.00
2023-11-04T00:47:43.305Z,8.00
2023-11-04T00:51:45.134Z,8.00
2023-11-04T00:55:47.130Z,8.10
2023-11-04T00:59:49.056Z,8.10
2023-11-04T01:03:50.993Z,8.10
2023-11-04T01:07:53.430Z,8.00
2023-11-04T01:11:55.496Z,8.00
2023-11-04T01:15:57.468Z,8.00
2023-11-04T01:19:59.275Z,8.10
2023-11-04T01:24:01.264Z,8.00
2023-11-04T01:28:03.248Z,8.00
2023-11-04T01:32:07.062Z,8.10
2023-11-04T01:36:10.593Z,8.00
2023-11-04T01:40:13.258Z,7.90
2023-11-04T01:44:15.425Z,7.90
2023-11-04T01:48:17.865Z,7.90
2023-11-04T01:52:19.999Z,7.90
2023-11-04T01:56:26.485Z,7.90
2023-11-04T02:00:28.532Z,8.00
2023-11-04T02:04:31.477Z,7.90
2023-11-04T02:08:36.027Z,7.90
2023-11-04T02:12:37.893Z,7.90
2023-11-04T02:16:39.771Z,7.90
2023-11-04T02:20:46.710Z,7.90
2023-11-04T02:24:49.704Z,7.90
2023-11-04T02:28:51.619Z,7.90
2023-11-04T02:32:54.165Z,7.90
2023-11-04T02:36:56.136Z,7.90
2023-11-04T02:40:57.967Z,7.90
2023-11-04T02:45:00.214Z,7.90
2023-11-04T02:49:02.139Z,7.90
2023-11-04T02:53:03.989Z,7.90
2023-11-04T02:57:05.809Z,8.00
2023-11-04T03:01:07.801Z,8.00
2023-11-04T03:05:10.117Z,8.00
2023-11-04T03:09:12.575Z,8.00
2023-11-04T03:13:14.467Z,8.00
2023-11-04T03:17:17.317Z,8.00
2023-11-04T03:21:19.289Z,8.00
2023-11-04T03:25:22.710Z,8.10
2023-11-04T03:29:24.514Z,8.10
2023-11-04T03:33:26.555Z,8.10
2023-11-04T03:37:28.413Z,8.20
2023-11-04T03:41:30.555Z,8.20
2023-11-04T03:45:32.410Z,8.10
2023-11-04T03:49:35.176Z,8.10
2023-11-04T03:53:37.976Z,8.20
2023-11-04T03:57:39.776Z,8.20
2023-11-04T04:01:42.095Z,8.20
2023-11-04T04:05:44.048Z,8.20
2023-11-04T04:09:45.981Z,8.20
2023-11-04T04:13:48.027Z,8.20
2023-11-04T04:17:51.666Z,8.20
2023-11-04T04:21:53.767Z,8.20
2023-11-04T04:25:55.943Z,8.20
2023-11-04T04:29:57.981Z,8.20
2023-11-04T04:33:59.823Z,8.20
2023-11-04T04:38:01.981Z,8.30
2023-11-04T04:42:04.118Z,8.30
2023-11-04T04:46:06.085Z,8.30
2023-11-04T04:50:08.043Z,8.40
2023-11-04T04:54:10.146Z,8.40
2023-11-04T04:58:12.660Z,8.40
2023-11-04T05:02:14.798Z,8.40
2023-11-04T05:06:16.993Z,8.50
2023-11-04T05:10:18.942Z,8.50
2023-11-04T05:14:21.177Z,8.50
2023-11-04T05:18:23.173Z,8.40
2023-11-04T05:22:25.058Z,8.40
2023-11-04T05:26:27.763Z,8.40
2023-11-04T05:30:29.828Z,8.40
2023-11-04T05:34:31.708Z,8.40
2023-11-04T05:38:33.791Z,8.40
2023-11-04T05:42:36.136Z,8.50
2023-11-04T05:46:37.967Z,8.50
2023-11-04T05:50:39.738Z,8.50
2023-11-04T05:54:41.848Z,8.50
2023-11-04T05:58:43.748Z,8.50
2023-11-04T06:02:46.558Z,8.60
2023-11-04T06:06:48.556Z,8.50
2023-11-04T06:10:50.546Z,8.50
2023-11-04T06:14:52.301Z,8.60
2023-11-04T06:18:54.183Z,8.70
2023-11-04T06:22:56.122Z,8.70
2023-11-04T06:26:58.088Z,8.70
2023-11-04T06:31:00.164Z,8.80
2023-11-04T06:35:02.160Z,8.70
2023-11-04T06:39:05.877Z,8.70
2023-11-04T06:43:08.066Z,8.60
2023-11-04T06:47:09.914Z,8.60
2023-11-04T06:51:11.845Z,8.60
2023-11-04T06:55:13.868Z,8.50
2023-11-04T06:59:18.606Z,8.60
2023-11-04T07:03:21.030Z,8.60
2023-11-04T07:07:23.074Z,8.60
2023-11-04T07:11:25.098Z,8.70
2023-11-04T07:15:27.425Z,8.70
2023-11-04T07:19:29.327Z,8.60
2023-11-04T07:23:31.531Z,8.70
2023-11-04T07:27:33.743Z,8.80
2023-11-04T07:31:36.682Z,8.80
2023-11-04T07:35:39.951Z,8.90
2023-11-04T07:39:42.073Z,9.00
2023-11-04T07:43:44.660Z,8.90
2023-11-04T07:47:46.702Z,9.00
2023-11-04T07:51:50.219Z,9.10
2023-11-04T07:55:52.241Z,9.10
2023-11-04T07:59:54.326Z,9.20
2023-11-04T08:03:56.755Z,9.30
2023-11-04T08:07:58.689Z,9.30
2023-11-04T08:12:00.439Z,9.40
2023-11-04T08:16:02.274Z,9.40
2023-11-04T08:20:09.970Z,9.40
2023-11-04T08:24:12.787Z,9.40
2023-11-04T08:28:14.876Z,9.40
2023-11-04T08:32:16.712Z,9.40
2023-11-04T08:36:18.515Z,9.50
2023-11-04T08:40:20.545Z,9.40
2023-11-04T08:44:23.544Z,9.40
2023-11-04T08:48:25.575Z,9.50
2023-11-04T08:52:27.617Z,9.60
2023-11-04T08:56:30.232Z,9.50
2023-11-04T09:00:32.056Z,9.60
2023-11-04T09:04:35.268Z,9.70
2023-11-04T09:08:37.184Z,9.70
2023-11-04T09:12:39.612Z,9.80
2023-11-04T09:16:43.261Z,9.80
2023-11-04T09:20:45.258Z,9.90
2023-11-04T09:24:47.132Z,9.90
2023-11-04T09:28:50.957Z,9.80
2023-11-04T09:32:52.865Z,9.80
2023-11-04T09:36:54.788Z,9.70
2023-11-04T09:40:57.039Z,9.70
2023-11-04T09:44:58.984Z,9.70
2023-11-04T09:49:01.463Z,9.70
2023-11-04T09:53:14.995Z,9.60
2023-11-04T09:57:16.902Z,9.60
2023-11-04T10:01:19.720Z,9.60
2023-11-04T10:05:22.390Z,9.60
2023-11-04T10:09:24.539Z,9.60
2023-11-04T10:13:26.423Z,9.50
2023-11-04T10:17:28.995Z,9.60
2023-11-04T10:21:30.824Z,9.60
2023-11-04T10:25:33.069Z,9.50
2023-11-04T10:29:36.921Z,9.40
2023-11-04T10:33:39.702Z,9.50
2023-11-04T10:37:48.346Z,9.40
2023-11-04T10:42:07.725Z,9.40
2023-11-04T10:46:15.631Z,9.40
2023-11-04T10:50:26.582Z,9.40
2023-11-04T10:55:08.434Z,9.50
2023-11-04T10:59:41.866Z,9.30
2023-11-04T11:03:49.571Z,9.00
2023-11-04T11:07:52.174Z,9.00
2023-11-04T11:11:54.088Z,9.00
2023-11-04T11:15:59.651Z,9.00
2023-11-04T11:20:03.078Z,9.10
2023-11-04T11:24:12.144Z,9.10
2023-11-04T11:28:24.596Z,9.20
2023-11-04T11:32:36.191Z,9.10
2023-11-04T11:36:38.410Z,9.10
2023-11-04T11:40:51.485Z,9.20
2023-11-04T11:44:56.558Z,9.30
2023-11-04T11:48:58.769Z,9.30
2023-11-04T11:53:00.727Z,9.30
2023-11-04T11:57:03.145Z,9.30
2023-11-04T12:01:06.277Z,9.40
2023-11-04T12:05:11.465Z,9.40
2023-11-04T12:09:13.918Z,9.40
2023-11-04T12:13:16.248Z,9.40
2023-11-04T12:17:18.304Z,9.40
2023-11-04T12:21:21.110Z,9.30
2023-11-04T12:25:24.090Z,9.40
2023-11-04T12:29:30.380Z,9.20
2023-11-04T12:33:34.202Z,9.30
2023-11-04T12:37:36.289Z,9.40
2023-11-04T12:41:40.065Z,9.50
2023-11-04T12:45:47.743Z,9.40
2023-11-04T12:49:49.674Z,9.40
2023-11-04T12:53:53.003Z,9.40
2023-11-04T12:57:54.856Z,9.50
2023-11-04T13:01:56.847Z,9.30
2023-11-04T13:05:58.866Z,9.10
2023-11-04T13:10:00.855Z,9.10
2023-11-04T13:14:06.207Z,9.20
2023-11-04T13:18:08.586Z,9.30
2023-11-04T13:22:10.718Z,9.40
2023-11-04T13:26:14.129Z,9.40
2023-11-04T13:30:17.691Z,9.40
2023-11-04T13:34:22.227Z,9.40
2023-11-04T13:38:24.463Z,9.40
2023-11-04T13:42:26.396Z,9.40
2023-11-04T13:46:28.459Z,9.40
2023-11-04T13:50:30.846Z,9.50
2023-11-04T13:54:32.816Z,9.50
2023-11-04T13:58:38.630Z,9.50
2023-11-04T14:02:41.878Z,9.50
2023-11-04T14:06:44.956Z,9.50
2023-11-04T14:10:49.277Z,9.40
2023-11-04T14:14:53.009Z,9.50
2023-11-04T14:18:58.095Z,9.40
2023-11-04T14:23:02.156Z,9.40
2023-11-04T14:27:06.241Z,9.40
2023-11-04T14:31:12.393Z,9.50
2023-11-04T14:35:16.270Z,9.40
2023-11-04T14:39:20.221Z,9.40
2023-11-04T14:43:22.619Z,9.20
2023-11-04T14:47:24.626Z,9.20
2023-11-04T14:51:29.262Z,9.20
2023-11-04T14:55:31.939Z,9.20
2023-11-04T14:59:33.938Z,9.20
2023-11-04T15:03:40.612Z,9.30
2023-11-04T15:07:43.657Z,9.40
2023-11-04T15:11:45.750Z,9.40
2023-11-04T15:15:47.881Z,9.30
2023-11-04T15:19:50.676Z,9.40
2023-11-04T15:23:55.443Z,9.40
2023-11-04T15:27:57.719Z,9.40
2023-11-04T15:32:00.130Z,9.40
2023-11-04T15:36:01.986Z,9.40
2023-11-04T15:40:04.552Z,9.40
2023-11-04T15:44:06.987Z,9.30
2023-11-04T15:48:08.871Z,9.30
2023-11-04T15:52:13.304Z,9.30
2023-11-04T15:56:15.397Z,9.30
2023-11-04T16:00:17.962Z,9.30
2023-11-04T16:04:19.840Z,9.30
2023-11-04T16:08:22.580Z,9.40
2023-11-04T16:12:24.984Z,9.40
2023-11-04T16:16:26.785Z,9.40
2023-11-04T16:20:29.891Z,9.40
2023-11-04T16:24:32.030Z,9.50
2023-11-04T16:28:34.655Z,9.50
2023-11-04T16:32:41.753Z,9.50
2023-11-04T16:36:43.616Z,9.60
2023-11-04T16:40:45.756Z,9.60
2023-11-04T16:44:47.573Z,9.60
2023-11-04T16:48:49.577Z,9.60
2023-11-04T16:52:51.505Z,9.70
2023-11-04T16:56:53.400Z,9.70
2023-11-04T17:00:56.511Z,9.70
2023-11-04T17:04:58.569Z,9.70
2023-11-04T17:09:00.648Z,9.80
2023-11-04T17:13:02.901Z,9.80
2023-11-04T17:17:07.925Z,9.80
2023-11-04T17:21:10.056Z,9.90
2023-11-04T17:25:12.068Z,9.90
2023-11-04T17:29:14.006Z,9.90
2023-11-04T17:33:16.784Z,9.90
2023-11-04T17:41:29.252Z,9.90
2023-11-04T17:45:32.144Z,9.90
2023-11-04T17:49:39.859Z,9.90
2023-11-04T17:53:41.770Z,9.80
2023-11-04T17:57:43.738Z,9.90
2023-11-04T18:01:45.646Z,9.80
2023-11-04T18:05:47.739Z,9.90
2023-11-04T18:09:49.549Z,9.90
2023-11-04T18:13:51.325Z,9.90
2023-11-04T18:17:53.254Z,9.90
2023-11-04T18:21:55.076Z,10.00
2023-11-04T18:25:57.024Z,9.90
2023-11-04T18:29:58.990Z,10.00
2023-11-04T18:34:01.007Z,10.00
2023-11-04T18:38:02.873Z,10.00
2023-11-04T18:42:05.120Z,10.00
2023-11-04T18:46:08.019Z,10.10
2023-11-04T18:58:54.429Z,10.20
2023-11-04T19:02:56.440Z,10.20
2023-11-04T19:07:01.620Z,10.20
2023-11-04T19:11:04.352Z,10.20
2023-11-04T19:15:06.738Z,10.20
2023-11-04T19:19:10.123Z,10.20
2023-11-04T19:23:12.191Z,10.10
2023-11-04T19:27:14.331Z,10.20
2023-11-04T19:31:16.398Z,10.20
2023-11-04T19:35:18.454Z,10.20
2023-11-04T19:39:20.297Z,10.20
2023-11-04T19:43:22.408Z,10.20
2023-11-04T19:47:24.737Z,10.10
2023-11-04T19:51:28.594Z,10.10
2023-11-04T19:55:30.590Z,10.00
2023-11-04T19:59:32.547Z,10.00
2023-11-04T20:03:35.780Z,9.90
2023-11-04T20:07:39.264Z,10.00
2023-11-04T20:11:41.407Z,10.00
2023-11-04T20:15:44.816Z,9.90
2023-11-04T20:19:48.237Z,9.90
2023-11-04T20:23:51.419Z,9.80
2023-11-04T20:27:53.506Z,9.80
2023-11-04T20:31:55.476Z,9.90
2023-11-04T20:35:58.492Z,9.90
2023-11-04T20:40:54.742Z,9.90
2023-11-04T20:45:04.453Z,9.80
2023-11-04T20:49:06.560Z,9.80
2023-11-04T20:53:10.358Z,9.90
2023-11-04T20:57:12.498Z,9.80
2023-11-04T21:01:14.741Z,9.80
2023-11-04T21:05:17.768Z,9.80
2023-11-04T21:09:19.733Z,9.80
2023-11-04T21:13:21.789Z,9.80
2023-11-04T21:17:23.838Z,9.80
2023-11-04T21:21:26.739Z,9.80
2023-11-04T21:25:28.697Z,9.80
2023-11-04T21:29:31.026Z,9.70
2023-11-04T21:33:33.260Z,9.70
2023-11-04T21:37:36.219Z,9.70
2023-11-04T21:41:38.342Z,9.80
2023-11-04T21:45:41.797Z,9.80
2023-11-04T21:49:43.934Z,9.80
2023-11-04T21:53:45.980Z,9.90
2023-11-04T21:57:49.931Z,9.90
2023-11-04T22:01:52.201Z,9.90
2023-11-04T22:05:54.025Z,10.00
2023-11-04T22:09:56.221Z,9.90
2023-11-04T22:13:58.942Z,9.90
2023-11-04T22:18:01.178Z,9.90
2023-11-04T22:22:03.462Z,9.90
2023-11-04T22:26:05.312Z,9.90
2023-11-04T22:30:07.792Z,9.90
2023-11-04T22:34:10.074Z,9.90
2023-11-04T22:38:12.529Z,9.90
2023-11-04T22:42:14.473Z,9.90
2023-11-04T22:46:16.981Z,9.90
2023-11-04T22:50:22.299Z,9.90
2023-11-04T22:54:24.171Z,9.90
2023-11-04T22:58:26.932Z,9.90
2023-11-04T23:02:28.748Z,9.90
2023-11-04T23:06:30.908Z,9.90
2023-11-04T23:10:32.839Z,9.90
2023-11-04T23:14:35.109Z,9.90
2023-11-04T23:18:37.177Z,9.90
2023-11-04T23:22:41.008Z,9.90
2023-11-04T23:26:43.171Z,9.90
2023-11-04T23:30:45.172Z,9.90
2023-11-04T23:34:47.024Z,10.00
2023-11-04T23:38:49.019Z,10.00
2023-11-04T23:42:51.050Z,10.00
2023-11-04T23:46:53.254Z,10.10
2023-11-04T23:50:55.138Z,10.10
2023-11-04T23:54:57.166Z,10.10
2023-11-04T23:58:59.020Z,10.10
